Time;durP1;ratioP1;P1;durP2;ratioP2;P2;SDS_P1;SDS_P2;PMS_P1;PMS_P2;Temp;Humidity;BMP_temperature;BMP_pressure;BME280_temperature;BME280_humidity;BME280_pressure;Samples;Min_cycle;Max_cycle;Signal;HPM_P1;HPM_P2
2022/07/25 00:00:08;;;;;;;4.10;3.70;;;22.10;61.20;;;;;;4992616;28;20179;-86
2022/07/25 00:02:38;;;;;;;4.43;4.00;;;22.10;61.20;;;;;;4995014;28;20606;-88
2022/07/25 00:05:06;;;;;;;4.55;4.15;;;22.10;61.20;;;;;;5049698;28;20202;-89
2022/07/25 00:07:32;;;;;;;4.10;3.70;;;22.20;61.30;;;;;;5054667;28;20169;-87
2022/07/25 00:09:59;;;;;;;4.32;3.92;;;22.10;61.20;;;;;;5053994;28;20557;-88
2022/07/25 00:12:25;;;;;;;3.83;3.50;;;22.10;61.20;;;;;;5070029;28;20201;-88
2022/07/25 00:14:51;;;;;;;3.80;3.50;;;22.10;61.20;;;;;;5053404;28;20272;-87
2022/07/25 00:17:17;;;;;;;4.22;3.83;;;22.10;61.20;;;;;;5053524;28;20157;-87
2022/07/25 00:19:43;;;;;;;4.30;3.90;;;22.10;61.20;;;;;;5054195;28;20169;-87
2022/07/25 00:22:13;;;;;;;4.30;3.90;;;22.10;61.20;;;;;;5036909;28;20172;-88
2022/07/25 00:24:38;;;;;;;3.70;3.40;;;22.20;61.30;;;;;;5053853;28;20176;-87
2022/07/25 00:27:05;;;;;;;4.30;3.90;;;22.10;61.20;;;;;;5087664;28;20638;-88
2022/07/25 00:29:32;;;;;;;4.20;3.80;;;22.10;61.30;;;;;;5091072;28;20175;-87
2022/07/25 00:31:58;;;;;;;4.45;4.05;;;22.10;61.40;;;;;;5090203;28;20184;-88
2022/07/25 00:34:30;;;;;;;4.22;3.83;;;22.10;61.30;;;;;;5029526;28;20584;-87
2022/07/25 00:37:00;;;;;;;4.32;3.88;;;22.10;61.30;;;;;;5046253;28;20186;-88
2022/07/25 00:39:27;;;;;;;4.10;3.70;;;22.10;61.40;;;;;;5014000;28;20179;-87
2022/07/25 00:41:56;;;;;;;4.00;3.60;;;22.10;61.40;;;;;;5029476;28;20190;-87
2022/07/25 00:44:26;;;;;;;3.97;3.58;;;22.10;61.30;;;;;;5007230;28;20184;-88
2022/07/25 00:46:54;;;;;;;3.97;3.58;;;22.10;61.40;;;;;;4974523;28;20243;-87
2022/07/25 00:49:24;;;;;;;3.97;3.55;;;22.10;61.40;;;;;;4932423;29;20273;-88
2022/07/25 00:51:50;;;;;;;4.45;3.72;;;22.00;61.40;;;;;;4932872;29;20185;-87
2022/07/25 00:54:21;;;;;;;4.13;3.72;;;22.00;61.40;;;;;;4932118;29;20225;-87
2022/07/25 00:56:48;;;;;;;4.75;4.10;;;22.00;61.40;;;;;;4932468;29;20213;-88
2022/07/25 00:59:25;;;;;;;3.90;3.55;;;22.10;61.40;;;;;;4914019;29;20254;-88
2022/07/25 01:01:53;;;;;;;4.28;3.88;;;22.10;61.40;;;;;;4912321;29;20234;-87
2022/07/25 01:04:19;;;;;;;4.03;3.63;;;22.00;61.40;;;;;;4894416;29;20251;-87
2022/07/25 01:06:46;;;;;;;4.47;4.07;;;22.00;61.40;;;;;;4894729;29;20245;-87
2022/07/25 01:09:15;;;;;;;4.00;3.60;;;22.10;61.40;;;;;;4879153;29;20219;-87
2022/07/25 01:11:43;;;;;;;4.18;3.78;;;22.00;61.30;;;;;;4880485;29;20183;-88
2022/07/25 01:14:10;;;;;;;4.00;3.60;;;22.00;61.40;;;;;;4875633;29;20471;-88
2022/07/25 01:16:43;;;;;;;4.28;3.88;;;22.00;61.40;;;;;;4894024;29;20222;-88
2022/07/25 01:19:09;;;;;;;4.38;3.95;;;22.00;61.40;;;;;;4878659;29;20183;-88
2022/07/25 01:21:38;;;;;;;4.10;3.70;;;22.00;61.40;;;;;;4891997;29;20188;-88
2022/07/25 01:24:04;;;;;;;4.57;4.18;;;22.00;61.40;;;;;;4875873;29;20184;-88
2022/07/25 01:26:30;;;;;;;4.30;3.90;;;22.00;61.40;;;;;;4892009;29;20279;-87
2022/07/25 01:28:58;;;;;;;4.20;3.80;;;22.00;61.40;;;;;;4890556;29;20243;-88
2022/07/25 01:31:24;;;;;;;4.38;3.97;;;22.00;61.50;;;;;;4916617;29;20257;-88
2022/07/25 01:33:50;;;;;;;3.70;3.40;;;22.00;61.50;;;;;;4928885;29;20223;-87
2022/07/25 01:36:18;;;;;;;4.30;3.90;;;22.00;61.50;;;;;;4913281;29;20658;-87
2022/07/25 01:38:46;;;;;;;4.72;4.22;;;22.00;61.50;;;;;;4947284;29;20185;-87
2022/07/25 01:41:21;;;;;;;4.70;4.25;;;22.00;61.50;;;;;;4966344;29;20186;-87
2022/07/25 01:43:59;;;;;;;4.63;3.92;;;22.00;61.60;;;;;;4970452;28;20259;-88
2022/07/25 01:46:24;;;;;;;4.10;3.70;;;21.90;61.50;;;;;;4970484;28;20681;-87
2022/07/25 01:48:54;;;;;;;4.30;3.90;;;22.00;61.50;;;;;;5008606;28;20195;-88
2022/07/25 01:51:20;;;;;;;4.25;3.85;;;22.00;61.60;;;;;;5010145;28;20288;-88
2022/07/25 01:53:47;;;;;;;4.70;4.13;;;22.00;61.50;;;;;;5067727;28;20216;-87
2022/07/25 01:56:13;;;;;;;3.97;3.58;;;22.00;61.50;;;;;;5068036;28;20233;-87
2022/07/25 01:58:39;;;;;;;4.38;3.97;;;22.00;61.50;;;;;;5068184;28;20177;-87
2022/07/25 02:01:06;;;;;;;4.57;3.80;;;22.00;61.60;;;;;;5050946;28;20174;-87
2022/07/25 02:03:35;;;;;;;4.25;3.85;;;22.00;61.60;;;;;;5024864;28;20183;-88
2022/07/25 02:06:03;;;;;;;4.10;3.70;;;22.00;61.60;;;;;;5047880;28;20185;-88
2022/07/25 02:08:30;;;;;;;4.30;3.90;;;22.00;61.60;;;;;;5015255;28;20178;-88
2022/07/25 02:11:00;;;;;;;4.38;3.97;;;22.00;61.60;;;;;;5015476;28;20169;-88
2022/07/25 02:13:27;;;;;;;4.22;3.83;;;21.90;61.60;;;;;;5049228;28;20215;-88
2022/07/25 02:15:53;;;;;;;4.70;4.22;;;21.90;61.60;;;;;;5015039;28;20272;-88
2022/07/25 02:18:23;;;;;;;4.40;3.90;;;21.90;61.60;;;;;;5014490;28;20165;-87
2022/07/25 02:20:52;;;;;;;4.53;4.13;;;21.90;61.60;;;;;;5031723;28;20174;-87
2022/07/25 02:23:20;;;;;;;4.45;4.05;;;21.90;61.60;;;;;;5046906;28;20168;-88
2022/07/25 02:25:47;;;;;;;4.35;3.95;;;22.00;61.80;;;;;;5031249;28;20704;-88
2022/07/25 02:28:16;;;;;;;4.30;3.90;;;21.90;61.70;;;;;;5047639;28;20585;-88
2022/07/25 02:30:42;;;;;;;4.38;3.97;;;21.90;61.60;;;;;;5047558;28;20165;-87
2022/07/25 02:33:08;;;;;;;4.75;4.32;;;21.90;61.60;;;;;;5030910;28;20284;-88
2022/07/25 02:35:35;;;;;;;4.50;4.03;;;22.00;61.80;;;;;;5014443;28;20188;-88
2022/07/25 02:38:03;;;;;;;4.53;4.13;;;21.90;61.70;;;;;;5014599;28;20237;-87
2022/07/25 02:40:29;;;;;;;4.35;3.95;;;22.00;61.80;;;;;;5030692;28;20253;-88
2022/07/25 02:42:57;;;;;;;3.90;3.60;;;21.90;61.80;;;;;;5072038;28;20164;-89
2022/07/25 02:45:23;;;;;;;4.60;4.00;;;21.90;61.80;;;;;;5105774;28;20180;-88
2022/07/25 02:47:51;;;;;;;4.50;4.10;;;21.90;61.90;;;;;;5071281;28;20566;-88
2022/07/25 02:50:20;;;;;;;4.57;4.10;;;21.90;61.80;;;;;;5072259;28;20678;-88
2022/07/25 02:52:46;;;;;;;4.30;3.90;;;21.90;61.80;;;;;;5071765;28;20295;-88
2022/07/25 02:55:12;;;;;;;4.80;4.32;;;21.90;61.80;;;;;;5054548;28;20191;-88
2022/07/25 02:57:38;;;;;;;4.45;4.05;;;21.90;61.80;;;;;;5071800;28;20192;-88
2022/07/25 03:00:07;;;;;;;4.10;3.70;;;21.90;61.80;;;;;;5071294;28;20171;-88
2022/07/25 03:02:37;;;;;;;4.32;3.90;;;21.90;61.80;;;;;;5104922;28;20614;-88
2022/07/25 03:05:07;;;;;;;4.40;4.00;;;21.90;61.80;;;;;;5087446;28;20183;-88
2022/07/25 03:07:34;;;;;;;4.70;4.20;;;21.90;61.80;;;;;;5070458;28;20188;-88
2022/07/25 03:09:59;;;;;;;4.72;4.28;;;21.90;61.80;;;;;;5053878;28;20176;-88
2022/07/25 03:12:31;;;;;;;4.18;3.78;;;21.90;61.80;;;;;;5070548;28;20231;-89
2022/07/25 03:15:03;;;;;;;4.88;4.32;;;21.90;61.80;;;;;;5054648;28;20171;-89
2022/07/25 03:17:29;;;;;;;4.13;3.72;;;21.90;61.80;;;;;;5071032;28;20181;-87
2022/07/25 03:19:58;;;;;;;4.05;3.65;;;21.90;61.80;;;;;;5067919;28;20224;-87
2022/07/25 03:22:26;;;;;;;4.55;4.13;;;21.90;61.80;;;;;;5050937;28;20192;-87
2022/07/25 03:25:00;;;;;;;4.38;3.97;;;21.90;61.80;;;;;;5050291;28;20208;-88
2022/07/25 03:27:27;;;;;;;4.72;4.22;;;21.90;61.80;;;;;;5025311;28;20519;-88
2022/07/25 03:29:54;;;;;;;4.50;4.10;;;21.90;61.80;;;;;;5010926;28;20186;-87
2022/07/25 03:32:25;;;;;;;4.30;3.90;;;21.90;61.90;;;;;;5006500;28;20207;-88
2022/07/25 03:34:53;;;;;;;4.07;3.67;;;21.90;61.90;;;;;;4972060;28;20222;-88
2022/07/25 03:37:19;;;;;;;4.43;4.03;;;21.90;61.80;;;;;;4976010;28;20330;-88
2022/07/25 03:39:44;;;;;;;4.88;4.38;;;21.80;61.80;;;;;;4975773;28;20169;-87
2022/07/25 03:42:11;;;;;;;4.40;3.97;;;21.90;61.90;;;;;;4983893;28;20184;-87
2022/07/25 03:44:38;;;;;;;5.07;4.00;;;21.90;61.90;;;;;;4956112;28;20654;-89
2022/07/25 03:47:04;;;;;;;4.40;4.00;;;21.90;61.90;;;;;;4941015;28;20181;-87
2022/07/25 03:49:35;;;;;;;4.28;3.88;;;21.90;61.90;;;;;;4940410;28;20172;-89
2022/07/25 03:52:01;;;;;;;4.30;3.83;;;21.80;61.90;;;;;;4971825;28;20192;-88
2022/07/25 03:54:27;;;;;;;4.47;4.07;;;21.90;61.90;;;;;;4954903;28;20221;-88
2022/07/25 03:56:53;;;;;;;4.30;3.90;;;21.90;61.90;;;;;;4946354;28;20190;-88
2022/07/25 03:59:22;;;;;;;4.68;4.28;;;21.90;62.00;;;;;;5012498;28;20189;-88
2022/07/25 04:01:49;;;;;;;4.43;4.03;;;21.90;62.00;;;;;;5053128;28;20165;-88
2022/07/25 04:04:16;;;;;;;4.82;4.18;;;21.90;62.00;;;;;;5087175;28;20185;-88
2022/07/25 04:06:42;;;;;;;4.20;3.80;;;21.90;62.00;;;;;;5053577;28;20610;-88
2022/07/25 04:09:09;;;;;;;4.18;3.78;;;21.90;62.00;;;;;;5054137;28;20261;-88
2022/07/25 04:11:37;;;;;;;5.28;4.32;;;21.90;62.00;;;;;;5036544;28;20185;-88
2022/07/25 04:14:03;;;;;;;4.50;4.00;;;21.80;62.00;;;;;;5037603;28;20253;-87
2022/07/25 04:16:32;;;;;;;4.47;4.00;;;21.90;62.00;;;;;;4993947;28;20179;-86
2022/07/25 04:19:01;;;;;;;4.18;3.75;;;21.80;62.00;;;;;;5010237;28;20175;-89
2022/07/25 04:21:28;;;;;;;4.47;4.00;;;21.80;62.10;;;;;;5027149;28;20238;-88
2022/07/25 04:23:55;;;;;;;4.40;4.00;;;21.80;62.10;;;;;;5026549;28;20194;-88
2022/07/25 04:26:21;;;;;;;4.63;4.22;;;21.80;62.10;;;;;;5010421;28;20291;-88
2022/07/25 04:28:55;;;;;;;4.68;4.18;;;21.90;62.10;;;;;;5009729;28;20167;-89
2022/07/25 04:31:26;;;;;;;4.38;3.97;;;21.90;62.10;;;;;;5026906;28;20648;-88
2022/07/25 04:33:57;;;;;;;4.70;4.20;;;21.80;62.10;;;;;;5010616;28;20210;-89
2022/07/25 04:36:25;;;;;;;4.78;4.15;;;21.80;62.10;;;;;;5006641;28;20176;-88
2022/07/25 04:38:54;;;;;;;4.25;3.85;;;21.80;62.10;;;;;;5009688;28;20250;-88
2022/07/25 04:41:21;;;;;;;4.32;3.90;;;21.80;62.10;;;;;;5010288;28;20262;-88
2022/07/25 04:43:49;;;;;;;4.30;3.90;;;21.80;62.10;;;;;;5009757;28;20191;-88
2022/07/25 04:46:19;;;;;;;4.28;3.88;;;21.70;62.20;;;;;;5009404;28;20172;-88
2022/07/25 04:48:50;;;;;;;4.60;4.20;;;21.80;62.30;;;;;;5068419;28;20181;-88
2022/07/25 04:51:17;;;;;;;4.30;3.90;;;21.80;62.40;;;;;;5052517;28;20176;-88
2022/07/25 04:53:49;;;;;;;4.10;3.72;;;21.70;62.30;;;;;;5048759;28;20224;-89
2022/07/25 04:56:22;;;;;;;4.72;4.22;;;21.70;62.40;;;;;;5005780;28;20191;-87
2022/07/25 04:59:12;;;;;;;4.05;3.65;;;21.80;62.40;;;;;;4970644;28;20200;-88
2022/07/25 05:01:50;;;;;;;4.40;4.00;;;21.80;62.50;;;;;;5005101;28;20678;-88
2022/07/25 05:04:27;;;;;;;4.30;3.90;;;21.80;62.20;;;;;;4993039;28;20233;-89
2022/07/25 05:07:05;;;;;;;4.22;3.83;;;21.90;62.30;;;;;;4964077;29;20185;-87
2022/07/25 05:09:38;;;;;;;4.18;3.78;;;21.90;62.40;;;;;;4951242;29;20185;-88
2022/07/25 05:12:09;;;;;;;4.90;4.03;;;22.00;62.10;;;;;;4950720;29;20260;-88
2022/07/25 05:14:47;;;;;;;4.43;4.03;;;21.90;62.10;;;;;;4951377;29;20185;-88
2022/07/25 05:17:14;;;;;;;4.25;3.80;;;22.00;62.10;;;;;;4966944;28;20189;-88
2022/07/25 05:19:45;;;;;;;4.10;3.72;;;22.00;62.10;;;;;;4970140;28;20381;-89
2022/07/25 05:22:17;;;;;;;4.82;3.90;;;22.00;62.10;;;;;;4969450;28;20181;-88
2022/07/25 05:24:48;;;;;;;4.40;4.00;;;22.00;62.00;;;;;;4970987;28;20184;-88
2022/07/25 05:27:14;;;;;;;5.05;4.22;;;22.00;62.00;;;;;;5010147;28;20246;-88
2022/07/25 05:29:42;;;;;;;4.20;3.80;;;22.00;62.10;;;;;;5008714;28;20175;-88
2022/07/25 05:32:12;;;;;;;3.90;3.50;;;22.00;62.10;;;;;;5041095;28;20179;-88
2022/07/25 05:34:46;;;;;;;5.80;4.00;;;21.90;62.10;;;;;;5013246;28;20255;-88
2022/07/25 05:37:19;;;;;;;4.25;3.85;;;21.90;62.10;;;;;;4946743;29;20309;-88
2022/07/25 05:39:45;;;;;;;4.20;3.80;;;21.90;62.00;;;;;;4947619;29;20178;-89
2022/07/25 05:42:11;;;;;;;4.28;3.88;;;21.90;62.10;;;;;;4943750;29;20242;-88
2022/07/25 05:44:37;;;;;;;4.15;3.75;;;22.00;62.10;;;;;;4943617;29;20190;-89
2022/07/25 05:47:11;;;;;;;4.45;4.05;;;22.00;62.20;;;;;;4928627;29;20194;-87
2022/07/25 05:49:39;;;;;;;4.75;4.30;;;22.00;62.10;;;;;;4928748;29;20321;-87
2022/07/25 05:52:10;;;;;;;4.40;4.00;;;22.00;62.20;;;;;;4900384;29;20245;-88
2022/07/25 05:54:40;;;;;;;4.30;3.90;;;22.00;62.20;;;;;;4915474;29;20222;-88
2022/07/25 05:57:11;;;;;;;4.38;3.90;;;22.00;62.30;;;;;;4915430;29;20189;-88
2022/07/25 05:59:36;;;;;;;4.60;4.10;;;22.00;62.20;;;;;;4947556;29;20193;-88
2022/07/25 06:02:02;;;;;;;4.40;4.00;;;22.00;62.40;;;;;;4945660;29;20273;-88
2022/07/25 06:04:29;;;;;;;4.57;4.18;;;22.00;62.40;;;;;;4927736;29;20268;-88
2022/07/25 06:06:58;;;;;;;4.20;3.80;;;22.10;62.40;;;;;;4925012;29;20311;-87
2022/07/25 06:09:33;;;;;;;4.78;4.07;;;22.00;62.40;;;;;;4927895;29;20216;-89
2022/07/25 06:12:02;;;;;;;4.18;3.78;;;22.00;62.50;;;;;;4929863;29;20177;-88
2022/07/25 06:14:31;;;;;;;4.20;3.80;;;22.00;62.60;;;;;;4962255;29;20192;-88
2022/07/25 06:17:02;;;;;;;4.30;3.90;;;22.00;62.50;;;;;;4962385;29;20177;-90
2022/07/25 06:19:33;;;;;;;4.38;3.90;;;22.00;62.50;;;;;;4955625;29;20246;-89
2022/07/25 06:21:59;;;;;;;4.75;4.25;;;22.10;62.50;;;;;;4921319;29;20248;-88
2022/07/25 06:24:26;;;;;;;4.38;3.97;;;22.10;62.50;;;;;;4918917;29;20726;-88
2022/07/25 06:27:00;;;;;;;4.38;3.97;;;22.10;62.70;;;;;;4889739;29;20184;-88
2022/07/25 06:29:39;;;;;;;4.38;3.97;;;22.10;62.70;;;;;;4908321;29;20182;-88
2022/07/25 06:32:20;;;;;;;4.38;3.97;;;22.20;62.60;;;;;;4922720;29;20662;-89
2022/07/25 06:34:54;;;;;;;4.20;3.80;;;22.20;62.50;;;;;;4897586;29;20190;-89
2022/07/25 06:37:28;;;;;;;4.40;3.90;;;22.20;62.70;;;;;;4913009;29;20270;-89
2022/07/25 06:40:07;;;;;;;4.55;4.15;;;22.20;62.70;;;;;;4942479;29;20568;-88
2022/07/25 06:42:40;;;;;;;4.60;4.20;;;22.20;62.90;;;;;;4927274;29;20315;-88
2022/07/25 06:45:09;;;;;;;4.80;4.40;;;22.20;62.90;;;;;;4895219;29;20183;-88
2022/07/25 06:47:47;;;;;;;4.50;4.10;;;22.10;63.20;;;;;;4915748;29;20182;-88
2022/07/25 06:50:17;;;;;;;4.72;4.30;;;22.20;63.40;;;;;;4957788;28;20189;-88
2022/07/25 06:52:48;;;;;;;5.10;4.30;;;22.20;63.40;;;;;;4967632;28;20243;-88
2022/07/25 06:55:30;;;;;;;5.30;4.35;;;22.10;63.40;;;;;;4969077;28;20192;-88
2022/07/25 06:58:19;;;;;;;4.55;4.15;;;22.10;63.60;;;;;;4966544;29;20208;-88
2022/07/25 07:01:00;;;;;;;4.63;4.22;;;22.00;63.80;;;;;;4984972;28;20191;-88
2022/07/25 07:03:36;;;;;;;4.68;4.28;;;22.00;63.80;;;;;;4984891;28;20188;-88
2022/07/25 07:06:05;;;;;;;4.50;4.10;;;22.10;63.80;;;;;;4954262;28;20315;-88
2022/07/25 07:08:35;;;;;;;4.75;4.25;;;22.10;63.70;;;;;;4923059;29;20185;-88
2022/07/25 07:11:06;;;;;;;4.75;4.25;;;22.20;63.60;;;;;;4933669;29;20193;-89
2022/07/25 07:13:33;;;;;;;5.15;4.65;;;22.10;63.50;;;;;;4949428;29;20684;-88
2022/07/25 07:16:04;;;;;;;4.63;4.20;;;22.10;63.40;;;;;;4927433;29;20183;-88
2022/07/25 07:18:39;;;;;;;4.95;4.45;;;22.20;63.60;;;;;;4897128;29;20643;-88
2022/07/25 07:21:09;;;;;;;4.65;4.25;;;22.20;63.50;;;;;;4877506;29;20200;-88
2022/07/25 07:23:47;;;;;;;4.90;4.40;;;22.20;63.60;;;;;;4831166;29;20193;-89
2022/07/25 07:26:19;;;;;;;4.75;4.20;;;22.20;63.70;;;;;;4855453;29;20185;-88
2022/07/25 07:28:48;;;;;;;4.75;4.25;;;22.30;63.50;;;;;;4902276;29;20191;-88
2022/07/25 07:31:21;;;;;;;5.03;4.53;;;22.30;63.40;;;;;;4914911;29;20274;-88
2022/07/25 07:33:53;;;;;;;5.13;4.63;;;22.30;63.30;;;;;;4926938;29;20214;-88
2022/07/25 07:36:41;;;;;;;4.97;4.43;;;22.30;63.40;;;;;;4914875;29;20183;-88
2022/07/25 07:39:16;;;;;;;5.30;4.63;;;22.40;63.30;;;;;;4889075;29;20186;-89
2022/07/25 07:42:12;;;;;;;4.90;4.40;;;22.30;63.40;;;;;;4914495;29;20210;-88
2022/07/25 07:45:09;;;;;;;5.03;4.53;;;22.40;63.40;;;;;;4910751;29;20196;-88
2022/07/25 07:47:46;;;;;;;4.90;4.40;;;22.40;63.20;;;;;;4888644;29;20196;-89
2022/07/25 07:50:31;;;;;;;5.03;4.53;;;22.40;63.30;;;;;;4873647;29;20192;-88
2022/07/25 07:53:18;;;;;;;5.10;4.60;;;22.50;63.20;;;;;;4872624;29;20223;-88
2022/07/25 07:55:54;;;;;;;5.38;4.47;;;22.50;63.20;;;;;;4885871;29;20312;-88
2022/07/25 07:58:23;;;;;;;5.38;4.88;;;22.50;63.40;;;;;;4888804;29;20263;-88
2022/07/25 08:00:50;;;;;;;5.00;4.50;;;22.50;63.10;;;;;;4884961;29;20373;-88
2022/07/25 08:03:17;;;;;;;5.03;4.53;;;22.50;63.20;;;;;;4888165;29;20652;-88
2022/07/25 08:05:52;;;;;;;5.10;4.60;;;22.50;63.20;;;;;;4903976;29;20191;-89
2022/07/25 08:08:22;;;;;;;5.30;4.78;;;22.50;63.20;;;;;;4918408;29;20188;-89
2022/07/25 08:10:49;;;;;;;5.18;4.60;;;22.60;63.10;;;;;;4903507;29;20180;-89
2022/07/25 08:13:19;;;;;;;5.38;4.88;;;22.60;63.10;;;;;;4903420;29;20243;-88
2022/07/25 08:15:51;;;;;;;5.43;4.45;;;22.60;63.00;;;;;;4887619;29;20257;-88
2022/07/25 08:18:17;;;;;;;5.18;4.68;;;22.50;63.20;;;;;;4909760;29;20180;-87
2022/07/25 08:20:44;;;;;;;5.85;4.75;;;22.50;63.30;;;;;;4918743;29;20182;-89
2022/07/25 08:23:12;;;;;;;5.40;4.90;;;22.60;63.20;;;;;;4980505;28;20256;-88
2022/07/25 08:25:38;;;;;;;5.35;4.55;;;22.60;63.20;;;;;;4953449;28;20231;-89
2022/07/25 08:28:09;;;;;;;5.05;4.55;;;22.70;63.00;;;;;;4984420;28;20636;-88
2022/07/25 08:30:37;;;;;;;5.28;4.78;;;22.70;62.90;;;;;;4970183;28;20176;-88
2022/07/25 08:33:08;;;;;;;5.28;4.75;;;22.70;63.10;;;;;;5004508;28;20373;-88
2022/07/25 08:35:40;;;;;;;5.25;4.75;;;22.70;63.10;;;;;;5029724;28;20190;-88
2022/07/25 08:38:06;;;;;;;7.05;5.05;;;22.70;63.00;;;;;;4990867;28;20238;-87
2022/07/25 08:40:42;;;;;;;4.90;4.40;;;22.80;63.20;;;;;;4988960;28;20184;-90
2022/07/25 08:43:12;;;;;;;5.50;5.00;;;22.80;63.10;;;;;;4982466;28;20650;-88
2022/07/25 08:45:44;;;;;;;5.82;5.22;;;22.80;63.00;;;;;;5003689;28;20214;-89
2022/07/25 08:48:10;;;;;;;5.07;4.57;;;22.80;62.90;;;;;;4987154;28;20191;-88
2022/07/25 08:50:40;;;;;;;5.57;5.00;;;22.80;63.00;;;;;;4985379;28;20185;-89
2022/07/25 08:53:08;;;;;;;5.22;4.72;;;22.80;63.00;;;;;;5001888;28;20219;-89
2022/07/25 08:55:35;;;;;;;5.13;4.63;;;22.80;62.90;;;;;;5001836;28;20705;-89
2022/07/25 08:58:01;;;;;;;5.57;4.97;;;22.90;63.10;;;;;;5001211;28;20275;-88
2022/07/25 09:00:27;;;;;;;5.13;4.65;;;22.80;63.10;;;;;;4999328;28;20200;-89
2022/07/25 09:02:55;;;;;;;5.75;5.10;;;22.90;63.10;;;;;;5012101;28;20187;-89
2022/07/25 09:05:21;;;;;;;5.55;5.03;;;22.90;63.20;;;;;;5004784;28;20183;-89
2022/07/25 09:07:49;;;;;;;5.35;4.85;;;22.90;63.20;;;;;;5004311;28;20194;-89
2022/07/25 09:10:19;;;;;;;5.28;4.78;;;22.90;63.20;;;;;;5011260;28;20633;-90
2022/07/25 09:13:01;;;;;;;5.22;4.72;;;22.90;63.30;;;;;;5004789;28;20274;-90
2022/07/25 09:15:32;;;;;;;5.47;4.97;;;22.90;63.40;;;;;;5043463;28;20177;-89
2022/07/25 09:17:59;;;;;;;5.57;5.07;;;22.90;63.20;;;;;;5027478;28;20186;-90
2022/07/25 09:20:39;;;;;;;5.57;4.97;;;22.90;63.30;;;;;;5026401;28;20158;-89
2022/07/25 09:23:08;;;;;;;5.57;4.97;;;22.90;63.30;;;;;;5027894;28;20659;-89
2022/07/25 09:25:33;;;;;;;5.10;4.60;;;22.90;63.40;;;;;;5027286;28;20174;-90
2022/07/25 09:28:14;;;;;;;5.38;4.88;;;22.90;63.40;;;;;;5026697;28;20162;-88
2022/07/25 09:30:42;;;;;;;5.63;5.03;;;22.90;63.60;;;;;;5043702;28;20189;-89
2022/07/25 09:33:11;;;;;;;5.28;4.78;;;22.90;63.50;;;;;;5026172;28;20198;-88
2022/07/25 09:35:39;;;;;;;5.72;5.07;;;22.90;63.40;;;;;;5028331;28;20173;-90
2022/07/25 09:38:08;;;;;;;5.80;5.20;;;22.90;63.60;;;;;;5028528;28;20270;-90
2022/07/25 09:40:34;;;;;;;5.35;4.85;;;22.90;63.60;;;;;;5010684;28;20184;-88
2022/07/25 09:43:00;;;;;;;5.30;4.80;;;22.90;64.50;;;;;;5026243;28;20211;-88
2022/07/25 09:45:26;;;;;;;5.97;5.38;;;22.90;63.60;;;;;;5026645;28;20232;-88
2022/07/25 09:47:55;;;;;;;5.53;5.00;;;22.90;63.60;;;;;;5026391;28;20241;-89
2022/07/25 09:50:24;;;;;;;5.60;5.05;;;22.90;63.70;;;;;;5038798;28;20746;-89
2022/07/25 09:52:54;;;;;;;5.50;5.00;;;22.90;63.80;;;;;;5048090;28;20229;-90
2022/07/25 09:55:21;;;;;;;5.15;4.65;;;22.90;64.00;;;;;;5044973;28;20264;-89
2022/07/25 09:57:47;;;;;;;5.13;4.63;;;22.80;64.00;;;;;;5078969;28;20680;-90
2022/07/25 10:00:14;;;;;;;6.00;5.30;;;22.90;64.90;;;;;;5059872;28;20200;-90
2022/07/25 10:03:08;;;;;;;6.18;5.45;;;22.90;64.90;;;;;;5060587;28;20162;-87
2022/07/25 10:05:48;;;;;;;5.90;5.30;;;22.90;64.10;;;;;;5049968;28;20533;-90
2022/07/25 10:08:15;;;;;;;5.30;4.80;;;22.90;64.00;;;;;;5064466;28;20222;-88
2022/07/25 10:10:41;;;;;;;5.65;4.93;;;22.80;64.20;;;;;;5063024;28;20177;-88
2022/07/25 10:13:10;;;;;;;5.13;4.63;;;22.90;64.30;;;;;;5049050;28;20223;-88
2022/07/25 10:15:54;;;;;;;5.40;4.88;;;22.80;64.30;;;;;;5040250;28;20178;-88
2022/07/25 10:18:22;;;;;;;5.28;4.78;;;22.90;64.40;;;;;;4991745;28;20163;-90
2022/07/25 10:20:55;;;;;;;6.13;5.53;;;22.90;64.40;;;;;;4988489;28;20242;-88
2022/07/25 10:23:27;;;;;;;5.93;5.13;;;22.90;64.20;;;;;;5019603;28;20206;-89
2022/07/25 10:26:08;;;;;;;6.05;5.45;;;22.90;64.20;;;;;;4989111;28;20581;-88
2022/07/25 10:28:45;;;;;;;5.90;5.30;;;22.90;64.10;;;;;;5004239;28;20166;-88
2022/07/25 10:31:34;;;;;;;5.70;5.18;;;22.90;64.30;;;;;;4987536;28;20190;-88
2022/07/25 10:34:02;;;;;;;5.13;4.63;;;22.90;64.20;;;;;;5008362;28;20190;-88
2022/07/25 10:36:45;;;;;;;5.85;5.25;;;23.00;64.20;;;;;;4988058;28;20182;-88
2022/07/25 10:39:12;;;;;;;5.32;4.82;;;23.00;64.20;;;;;;5003159;28;20181;-88
2022/07/25 10:41:39;;;;;;;5.60;4.88;;;23.00;64.20;;;;;;4988121;28;20182;-88
2022/07/25 10:44:11;;;;;;;5.65;4.82;;;23.00;64.20;;;;;;5019550;28;20163;-88
2022/07/25 10:46:37;;;;;;;6.25;5.65;;;23.00;64.50;;;;;;5015026;28;20196;-89
2022/07/25 10:49:05;;;;;;;6.15;5.55;;;23.00;64.30;;;;;;5042255;28;20173;-89
2022/07/25 10:51:33;;;;;;;5.82;5.20;;;23.00;64.30;;;;;;5059090;28;20231;-89
2022/07/25 10:54:15;;;;;;;5.80;5.25;;;23.00;64.30;;;;;;5059121;28;20298;-90
2022/07/25 10:56:54;;;;;;;5.22;4.72;;;23.00;64.30;;;;;;5075323;28;20518;-89
2022/07/25 10:59:36;;;;;;;5.85;5.25;;;23.00;65.10;;;;;;5042760;28;20177;-89
2022/07/25 11:02:04;;;;;;;6.20;5.60;;;23.10;64.30;;;;;;5076618;28;20161;-90
2022/07/25 11:04:29;;;;;;;5.50;4.97;;;23.10;64.30;;;;;;5042717;28;20620;-91
2022/07/25 11:06:56;;;;;;;5.53;5.03;;;23.10;64.40;;;;;;5043571;28;20231;-89
2022/07/25 11:09:23;;;;;;;5.68;5.10;;;23.10;64.50;;;;;;5043713;28;20173;-91
2022/07/25 11:11:52;;;;;;;6.03;5.35;;;23.10;64.60;;;;;;5076670;28;20185;-90
2022/07/25 11:14:21;;;;;;;5.60;5.00;;;23.10;64.50;;;;;;5043134;28;20193;-88
2022/07/25 11:16:52;;;;;;;5.78;5.28;;;23.10;64.60;;;;;;5019598;28;20182;-89
2022/07/25 11:19:21;;;;;;;6.38;5.78;;;23.10;64.50;;;;;;5035854;28;20572;-90
2022/07/25 11:21:50;;;;;;;5.50;5.00;;;23.00;64.70;;;;;;5035703;28;20182;-89
2022/07/25 11:24:16;;;;;;;5.68;5.07;;;23.00;64.90;;;;;;5019210;28;20178;-90
2022/07/25 11:26:50;;;;;;;6.30;5.70;;;23.00;64.90;;;;;;5035661;28;20186;-90
2022/07/25 11:29:23;;;;;;;5.50;5.00;;;23.10;65.00;;;;;;5035445;28;20194;-89
2022/07/25 11:31:57;;;;;;;5.57;5.03;;;23.10;64.90;;;;;;5036238;28;20185;-88
2022/07/25 11:34:27;;;;;;;5.45;4.93;;;23.10;64.70;;;;;;5037764;28;20190;-90
2022/07/25 11:36:56;;;;;;;6.00;5.32;;;23.20;64.90;;;;;;5037168;28;20290;-89
2022/07/25 11:39:26;;;;;;;6.10;5.50;;;23.10;64.70;;;;;;5019096;28;20175;-89
2022/07/25 11:42:04;;;;;;;6.00;5.40;;;23.10;64.70;;;;;;5036758;28;20186;-89
2022/07/25 11:44:36;;;;;;;6.00;5.40;;;23.10;65.00;;;;;;5038048;28;20178;-90
2022/07/25 11:47:04;;;;;;;5.60;5.10;;;23.10;64.90;;;;;;5048375;28;20264;-88
2022/07/25 11:49:30;;;;;;;5.82;5.13;;;23.10;65.00;;;;;;5023961;28;20595;-90
2022/07/25 11:51:57;;;;;;;5.80;5.20;;;23.10;64.80;;;;;;5004098;28;20189;-89
2022/07/25 11:54:25;;;;;;;5.65;5.07;;;23.20;64.80;;;;;;5007810;28;20237;-90
2022/07/25 11:56:51;;;;;;;5.95;5.35;;;23.10;65.20;;;;;;4995153;28;20253;-88
2022/07/25 11:59:19;;;;;;;5.78;5.20;;;23.10;65.20;;;;;;4995734;28;20179;-89
2022/07/25 12:01:53;;;;;;;6.13;5.53;;;23.00;65.20;;;;;;4974026;28;20665;-87
2022/07/25 12:04:32;;;;;;;5.90;5.30;;;23.10;65.40;;;;;;4936195;29;20184;-89
2022/07/25 12:07:15;;;;;;;;;;;;;;;;;;;;;
2022/07/25 12:09:46;;;;;;;5.53;5.03;;;23.00;65.50;;;;;;4892033;29;20280;-89
2022/07/25 12:12:13;;;;;;;5.72;5.18;;;23.10;65.40;;;;;;4893936;29;20251;-90
2022/07/25 12:14:45;;;;;;;5.82;5.22;;;23.10;65.40;;;;;;4896534;29;20195;-88
2022/07/25 12:17:13;;;;;;;6.60;6.00;;;23.10;65.60;;;;;;4882328;29;20183;-88
2022/07/25 12:19:44;;;;;;;6.45;5.43;;;23.10;65.70;;;;;;4898703;29;20187;-88
2022/07/25 12:22:11;;;;;;;6.50;5.90;;;23.10;66.00;;;;;;4881463;29;20186;-88
2022/07/25 12:24:42;;;;;;;6.03;5.43;;;23.10;65.80;;;;;;4880813;29;20653;-88
2022/07/25 12:27:15;;;;;;;6.03;5.43;;;23.10;65.90;;;;;;4897283;29;20215;-88
2022/07/25 12:29:41;;;;;;;6.55;5.43;;;23.10;65.90;;;;;;4881274;29;20186;-88
2022/07/25 12:32:08;;;;;;;5.80;5.20;;;23.10;66.00;;;;;;4916085;29;20651;-88
2022/07/25 12:34:37;;;;;;;6.65;5.60;;;23.10;66.10;;;;;;4984552;28;20212;-88
2022/07/25 12:37:03;;;;;;;5.53;4.88;;;23.10;66.10;;;;;;4966111;29;20178;-89
2022/07/25 12:39:30;;;;;;;5.57;5.00;;;23.10;66.00;;;;;;4983799;28;20193;-88
2022/07/25 12:41:57;;;;;;;5.68;5.07;;;23.10;66.00;;;;;;4951553;28;20204;-88
2022/07/25 12:44:23;;;;;;;6.10;5.50;;;23.10;66.30;;;;;;4988564;28;20244;-89
2022/07/25 12:46:50;;;;;;;7.10;5.30;;;23.10;66.20;;;;;;5030221;28;20209;-88
2022/07/25 12:49:16;;;;;;;6.00;5.40;;;23.10;66.50;;;;;;5014364;28;20193;-88
2022/07/25 12:51:42;;;;;;;5.93;5.28;;;23.10;66.30;;;;;;5014212;28;20216;-90
2022/07/25 12:54:08;;;;;;;6.00;5.40;;;23.20;66.30;;;;;;5013168;28;20244;-89
2022/07/25 12:56:35;;;;;;;6.05;5.45;;;23.20;66.20;;;;;;5031201;28;20194;-90
2022/07/25 12:59:01;;;;;;;6.18;5.57;;;23.20;66.20;;;;;;5031109;28;20554;-88
2022/07/25 13:01:26;;;;;;;5.45;4.95;;;23.20;66.60;;;;;;5029719;28;20162;-88